createdAt,value
2022-08-04T00:00:17.192Z,21.26
2022-08-04T00:03:02.297Z,21.12
2022-08-04T00:05:36.556Z,20.86
2022-08-04T00:08:12.297Z,21.04
2022-08-04T00:10:40.495Z,20.97
2022-08-04T00:13:09.439Z,20.92
2022-08-04T00:15:41.028Z,20.91
2022-08-04T00:18:10.054Z,20.90
2022-08-04T00:20:42.447Z,20.47
2022-08-04T00:23:18.217Z,20.85
2022-08-04T00:25:57.392Z,20.68
2022-08-04T00:28:24.912Z,20.62
2022-08-04T00:30:53.807Z,20.58
2022-08-04T00:33:21.931Z,20.62
2022-08-04T00:35:50.118Z,20.46
2022-08-04T00:38:18.361Z,20.62
2022-08-04T00:41:00.462Z,20.61
2022-08-04T00:43:45.958Z,20.53
2022-08-04T00:47:00.444Z,20.56
2022-08-04T00:49:46.202Z,20.48
2022-08-04T00:52:33.768Z,20.41
2022-08-04T00:55:28.821Z,20.39
2022-08-04T00:58:26.692Z,20.38
2022-08-04T01:01:02.326Z,20.32
2022-08-04T01:03:41.241Z,20.30
2022-08-04T01:06:29.218Z,20.25
2022-08-04T01:09:07.828Z,20.23
2022-08-04T01:12:16.561Z,20.18
2022-08-04T01:14:49.608Z,20.19
2022-08-04T01:17:19.763Z,20.08
2022-08-04T01:20:07.628Z,19.92
2022-08-04T01:22:34.588Z,20.03
2022-08-04T01:25:35.896Z,20.02
2022-08-04T01:28:30.990Z,20.13
2022-08-04T01:31:07.258Z,19.96
2022-08-04T01:34:03.183Z,19.94
2022-08-04T01:36:35.459Z,19.86
2022-08-04T01:39:24.875Z,19.77
2022-08-04T01:42:42.175Z,19.94
2022-08-04T01:45:11.671Z,19.85
2022-08-04T01:47:43.525Z,19.87
2022-08-04T01:50:13.433Z,19.92
2022-08-04T01:52:43.955Z,19.53
2022-08-04T01:55:16.165Z,19.74
2022-08-04T01:57:49.321Z,19.70
2022-08-04T02:00:22.735Z,19.48
2022-08-04T02:02:51.281Z,19.62
2022-08-04T02:05:21.186Z,19.59
2022-08-04T02:07:54.245Z,19.63
2022-08-04T02:10:30.752Z,19.62
2022-08-04T02:13:28.750Z,19.53
2022-08-04T02:16:18.729Z,19.43
2022-08-04T02:19:16.495Z,19.41
2022-08-04T02:21:47.507Z,19.35
2022-08-04T02:24:18.573Z,19.31
2022-08-04T02:26:50.173Z,19.25
2022-08-04T02:29:20.913Z,19.31
2022-08-04T02:32:03.277Z,19.20
2022-08-04T02:34:59.538Z,19.24
2022-08-04T02:37:27.499Z,19.21
2022-08-04T02:39:58.421Z,19.21
2022-08-04T02:42:28.716Z,19.18
2022-08-04T02:44:58.637Z,19.15
2022-08-04T02:48:28.783Z,19.15
2022-08-04T02:50:28.862Z,19.07
2022-08-04T02:53:00.502Z,19.12
2022-08-04T02:55:29.334Z,18.91
2022-08-04T02:57:59.313Z,19.10
2022-08-04T03:00:26.618Z,19.08
2022-08-04T03:02:59.733Z,19.14
2022-08-04T03:05:32.464Z,18.45
2022-08-04T03:08:28.623Z,19.01
2022-08-04T03:11:11.151Z,19.00
2022-08-04T03:14:15.420Z,19.01
2022-08-04T03:17:07.032Z,18.92
2022-08-04T03:19:36.717Z,18.96
2022-08-04T03:22:21.669Z,18.85
2022-08-04T03:25:04.029Z,18.76
2022-08-04T03:28:09.874Z,18.83
2022-08-04T03:30:57.153Z,18.84
2022-08-04T03:33:45.940Z,18.83
2022-08-04T03:36:36.180Z,18.69
2022-08-04T03:39:47.828Z,18.68
2022-08-04T03:42:49.188Z,18.67
2022-08-04T03:45:56.531Z,18.61
2022-08-04T03:48:51.305Z,18.69
2022-08-04T03:51:52.824Z,18.77
2022-08-04T03:54:38.682Z,18.72
2022-08-04T03:57:25.023Z,18.56
2022-08-04T04:00:21.301Z,18.69
2022-08-04T04:03:04.093Z,18.54
2022-08-04T04:05:59.027Z,18.63
2022-08-04T04:08:26.891Z,18.76
2022-08-04T04:11:20.149Z,18.76
2022-08-04T04:13:58.336Z,18.59
2022-08-04T04:16:34.314Z,18.70
2022-08-04T04:19:22.825Z,18.70
2022-08-04T04:22:43.818Z,18.72
2022-08-04T04:25:10.802Z,18.64
2022-08-04T04:27:49.630Z,18.67
2022-08-04T04:30:20.547Z,18.66
2022-08-04T04:33:07.785Z,18.63
2022-08-04T04:35:50.567Z,18.59
2022-08-04T04:38:17.504Z,18.70
2022-08-04T04:41:21.317Z,18.79
2022-08-04T04:44:02.131Z,18.80
2022-08-04T04:46:45.938Z,18.82
2022-08-04T04:49:25.686Z,18.86
2022-08-04T04:52:30.863Z,18.93
2022-08-04T04:55:10.222Z,18.90
2022-08-04T04:57:54.005Z,18.88
2022-08-04T05:00:30.003Z,19.09
2022-08-04T05:03:31.831Z,19.13
2022-08-04T05:06:15.107Z,19.36
2022-08-04T05:08:58.957Z,19.38
2022-08-04T05:11:44.830Z,19.45
2022-08-04T05:14:37.708Z,19.66
2022-08-04T05:17:18.524Z,19.77
2022-08-04T05:19:55.774Z,19.86
2022-08-04T05:22:37.840Z,19.86
2022-08-04T05:25:12.429Z,19.71
2022-08-04T05:27:51.683Z,19.80
2022-08-04T05:30:20.080Z,19.94
2022-08-04T05:32:59.105Z,20.07
2022-08-04T05:36:18.056Z,20.14
2022-08-04T05:38:36.147Z,20.22
2022-08-04T05:41:04.109Z,20.08
2022-08-04T05:43:31.863Z,20.42
2022-08-04T05:45:59.693Z,20.68
2022-08-04T05:48:27.688Z,20.78
2022-08-04T05:51:00.573Z,20.95
2022-08-04T05:53:28.857Z,20.77
2022-08-04T05:55:59.678Z,20.86
2022-08-04T05:58:30.363Z,21.27
2022-08-04T06:01:01.506Z,21.20
2022-08-04T06:03:31.375Z,21.27
2022-08-04T06:05:59.924Z,21.29
2022-08-04T06:08:27.097Z,21.32
2022-08-04T06:10:57.425Z,21.40
2022-08-04T06:13:48.651Z,21.47
2022-08-04T06:16:30.217Z,21.53
2022-08-04T06:20:01.047Z,21.68
2022-08-04T06:21:56.716Z,21.59
2022-08-04T06:24:26.525Z,21.85
2022-08-04T06:26:54.960Z,21.75
2022-08-04T06:29:35.973Z,22.09
2022-08-04T06:32:27.053Z,22.27
2022-08-04T06:35:04.789Z,22.47
2022-08-04T06:37:43.179Z,22.49
2022-08-04T06:40:29.642Z,22.55
2022-08-04T06:42:58.009Z,22.90
2022-08-04T06:45:26.759Z,22.78
2022-08-04T06:47:54.963Z,22.87
2022-08-04T06:51:27.185Z,23.07
2022-08-04T06:53:10.178Z,23.19
2022-08-04T06:55:38.537Z,23.29
2022-08-04T06:58:07.350Z,23.39
2022-08-04T07:00:37.860Z,23.76
2022-08-04T07:03:07.059Z,24.02
2022-08-04T07:05:35.868Z,24.05
2022-08-04T07:08:04.516Z,24.20
2022-08-04T07:10:31.882Z,24.46
2022-08-04T07:13:00.390Z,24.49
2022-08-04T07:15:28.396Z,24.82
2022-08-04T07:17:59.972Z,24.67
2022-08-04T07:20:34.979Z,24.71
2022-08-04T07:23:05.376Z,25.02
2022-08-04T07:25:59.954Z,25.12
2022-08-04T07:28:22.726Z,25.35
2022-08-04T07:30:50.266Z,25.45
2022-08-04T07:33:18.509Z,25.56
2022-08-04T07:36:08.328Z,25.71
2022-08-04T07:38:37.959Z,25.90
2022-08-04T07:41:36.669Z,26.13
2022-08-04T07:44:04.785Z,26.29
2022-08-04T07:46:32.225Z,26.26
2022-08-04T07:49:02.906Z,26.44
2022-08-04T07:51:31.151Z,26.69
2022-08-04T07:54:00.203Z,27.04
2022-08-04T07:56:28.357Z,27.23
2022-08-04T07:58:55.929Z,27.51
2022-08-04T08:01:24.494Z,27.52
2022-08-04T08:03:53.678Z,27.78
2022-08-04T08:06:32.956Z,27.95
2022-08-04T08:09:12.969Z,28.07
2022-08-04T08:12:35.444Z,28.19
2022-08-04T08:14:35.895Z,28.11
2022-08-04T08:17:05.758Z,28.48
2022-08-04T08:19:34.678Z,28.57
2022-08-04T08:22:02.472Z,28.76
2022-08-04T08:24:31.804Z,28.67
2022-08-04T08:27:00.188Z,28.76
2022-08-04T08:29:29.434Z,28.90
2022-08-04T08:32:01.447Z,29.01
2022-08-04T08:34:31.939Z,29.08
2022-08-04T08:37:13.914Z,29.03
2022-08-04T08:39:50.432Z,29.25
2022-08-04T08:42:48.049Z,29.38
2022-08-04T08:45:39.379Z,29.31
2022-08-04T08:48:47.983Z,29.59
2022-08-04T08:51:39.485Z,29.70
2022-08-04T08:54:44.254Z,29.86
2022-08-04T08:57:29.830Z,29.73
2022-08-04T09:00:09.170Z,29.86
2022-08-04T09:02:48.372Z,29.83
2022-08-04T09:06:04.170Z,30.08
2022-08-04T09:08:55.326Z,30.06
2022-08-04T09:11:26.074Z,30.33
2022-08-04T09:14:19.400Z,30.34
2022-08-04T09:16:52.046Z,30.52
2022-08-04T09:19:38.831Z,30.14
2022-08-04T09:22:16.345Z,30.41
2022-08-04T09:25:06.470Z,30.64
2022-08-04T09:27:38.843Z,30.53
2022-08-04T09:30:09.286Z,30.80
2022-08-04T09:32:39.654Z,30.89
2022-08-04T09:35:19.471Z,31.00
2022-08-04T09:38:09.601Z,31.07
2022-08-04T09:40:53.292Z,31.20
2022-08-04T09:44:43.178Z,31.21
2022-08-04T09:46:53.486Z,31.48
2022-08-04T09:49:31.824Z,31.26
2022-08-04T09:52:11.663Z,31.49
2022-08-04T09:54:59.011Z,31.81
2022-08-04T09:57:45.666Z,31.92
2022-08-04T10:00:16.900Z,31.64
2022-08-04T10:02:52.048Z,32.02
2022-08-04T10:05:26.339Z,31.96
2022-08-04T10:08:36.038Z,31.64
2022-08-04T10:11:21.331Z,31.81
2022-08-04T10:14:10.290Z,31.99
2022-08-04T10:16:53.873Z,32.15
2022-08-04T10:19:26.916Z,32.39
2022-08-04T10:22:29.454Z,32.32
2022-08-04T10:26:05.073Z,32.38
2022-08-04T10:28:15.409Z,32.21
2022-08-04T10:30:49.707Z,32.84
2022-08-04T10:33:25.824Z,32.93
2022-08-04T10:36:04.543Z,32.93
2022-08-04T10:38:45.695Z,33.27
2022-08-04T10:41:25.121Z,32.94
2022-08-04T10:44:23.446Z,33.27
2022-08-04T10:47:01.638Z,33.28
2022-08-04T10:49:37.174Z,33.28
2022-08-04T10:52:22.755Z,33.19
2022-08-04T10:55:01.799Z,33.27
2022-08-04T10:57:36.010Z,33.30
2022-08-04T11:00:11.635Z,33.03
2022-08-04T11:03:12.751Z,33.40
2022-08-04T11:05:46.679Z,33.52
2022-08-04T11:08:27.040Z,33.17
2022-08-04T11:11:05.636Z,33.47
2022-08-04T11:13:45.052Z,33.55
2022-08-04T11:16:20.952Z,33.45
2022-08-04T11:18:50.070Z,33.70
2022-08-04T11:21:25.457Z,33.43
2022-08-04T11:24:19.453Z,33.88
2022-08-04T11:27:02.082Z,34.14
2022-08-04T11:29:45.748Z,33.79
2022-08-04T11:32:19.899Z,33.95
2022-08-04T11:34:52.784Z,33.83
2022-08-04T11:37:27.628Z,34.01
2022-08-04T11:40:03.977Z,33.92
2022-08-04T11:42:37.720Z,33.90
2022-08-04T11:45:13.187Z,34.39
2022-08-04T11:47:48.181Z,34.25
2022-08-04T11:50:27.696Z,33.88
2022-08-04T11:52:58.171Z,33.97
2022-08-04T11:55:27.884Z,33.97
2022-08-04T11:57:55.765Z,33.88
2022-08-04T12:00:25.867Z,33.86
2022-08-04T12:03:08.851Z,34.20
2022-08-04T12:06:00.998Z,34.33
2022-08-04T12:09:05.530Z,34.44
2022-08-04T12:11:52.071Z,33.93
2022-08-04T12:14:27.302Z,33.97
2022-08-04T12:17:00.133Z,33.87
2022-08-04T12:20:04.853Z,34.26
2022-08-04T12:22:43.907Z,34.10
2022-08-04T12:25:16.093Z,34.29
2022-08-04T12:27:51.836Z,34.59
2022-08-04T12:30:59.818Z,34.41
2022-08-04T12:33:20.066Z,34.28
2022-08-04T12:36:10.916Z,34.54
2022-08-04T12:38:47.147Z,34.44
2022-08-04T12:41:21.277Z,34.43
2022-08-04T12:43:50.238Z,34.92
2022-08-04T12:46:26.791Z,35.05
2022-08-04T12:49:00.925Z,35.42
2022-08-04T12:52:06.400Z,35.49
2022-08-04T12:54:28.501Z,35.23
2022-08-04T12:57:01.903Z,35.27
2022-08-04T12:59:29.059Z,35.21
2022-08-04T13:02:07.977Z,35.28
2022-08-04T13:04:42.363Z,35.07
2022-08-04T13:07:35.811Z,35.03
2022-08-04T13:10:12.035Z,35.08
2022-08-04T13:12:40.580Z,35.20
2022-08-04T13:15:28.226Z,35.02
2022-08-04T13:18:02.497Z,35.28
2022-08-04T13:20:33.208Z,35.09
2022-08-04T13:23:14.408Z,34.81
2022-08-04T13:26:44.347Z,34.31
2022-08-04T13:28:42.963Z,34.38
2022-08-04T13:31:16.922Z,34.45
2022-08-04T13:33:48.417Z,33.91
2022-08-04T13:36:17.353Z,33.92
2022-08-04T13:38:58.252Z,33.76
2022-08-04T13:41:31.103Z,33.50
2022-08-04T13:44:19.497Z,33.46
2022-08-04T13:46:51.957Z,33.57
2022-08-04T13:49:48.616Z,33.34
2022-08-04T13:52:10.774Z,33.61
2022-08-04T13:54:42.623Z,33.80
2022-08-04T13:57:33.119Z,34.19
2022-08-04T14:00:06.191Z,34.36
2022-08-04T14:02:40.543Z,34.34
2022-08-04T14:05:27.513Z,34.29
2022-08-04T14:08:15.108Z,34.27
2022-08-04T14:10:42.656Z,34.09
2022-08-04T14:13:09.865Z,34.65
2022-08-04T14:16:01.257Z,34.82
2022-08-04T14:18:31.984Z,34.66
2022-08-04T14:21:10.582Z,34.58
2022-08-04T14:23:47.182Z,34.34
2022-08-04T14:26:18.576Z,34.27
2022-08-04T14:29:28.517Z,34.19
2022-08-04T14:31:33.109Z,34.15
2022-08-04T14:34:05.020Z,34.25
2022-08-04T14:37:09.103Z,34.01
2022-08-04T14:39:42.024Z,34.20
2022-08-04T14:42:54.597Z,34.15
2022-08-04T14:45:34.855Z,34.02
2022-08-04T14:48:07.361Z,33.89
2022-08-04T14:50:37.205Z,33.61
2022-08-04T14:53:11.711Z,33.63
2022-08-04T14:55:42.380Z,34.05
2022-08-04T14:58:35.740Z,34.07
2022-08-04T15:01:12.138Z,34.37
2022-08-04T15:03:52.171Z,34.51
2022-08-04T15:06:26.166Z,34.54
2022-08-04T15:08:57.046Z,34.57
2022-08-04T15:11:25.057Z,34.75
2022-08-04T15:13:53.142Z,34.93
2022-08-04T15:16:21.696Z,34.87
2022-08-04T15:18:49.517Z,35.25
2022-08-04T15:21:17.630Z,35.45
2022-08-04T15:23:44.695Z,35.59
2022-08-04T15:26:15.773Z,35.96
2022-08-04T15:28:50.074Z,35.37
2022-08-04T15:32:06.962Z,35.03
2022-08-04T15:34:08.945Z,34.73
2022-08-04T15:36:39.371Z,34.75
2022-08-04T15:39:18.658Z,34.57
2022-08-04T15:42:20.506Z,35.08
2022-08-04T15:44:50.879Z,35.07
2022-08-04T15:47:21.600Z,35.05
2022-08-04T15:50:11.611Z,34.84
2022-08-04T15:53:01.009Z,35.05
2022-08-04T15:55:38.450Z,35.07
2022-08-04T15:58:11.984Z,35.12
2022-08-04T16:00:48.491Z,34.72
2022-08-04T16:03:58.080Z,34.47
2022-08-04T16:06:20.536Z,34.73
2022-08-04T16:08:47.529Z,34.81
2022-08-04T16:11:31.839Z,34.33
2022-08-04T16:13:59.332Z,34.60
2022-08-04T16:16:31.566Z,34.40
2022-08-04T16:19:05.456Z,34.63
2022-08-04T16:21:46.824Z,34.35
2022-08-04T16:24:21.823Z,34.29
2022-08-04T16:27:00.707Z,33.97
2022-08-04T16:29:30.833Z,34.52
2022-08-04T16:32:13.274Z,34.86
2022-08-04T16:35:05.698Z,34.79
2022-08-04T16:37:35.046Z,34.73
2022-08-04T16:40:35.162Z,34.70
2022-08-04T16:43:13.502Z,34.44
2022-08-04T16:45:45.252Z,33.84
2022-08-04T16:48:14.475Z,33.56
2022-08-04T16:50:56.163Z,33.38
2022-08-04T16:54:02.700Z,33.11
2022-08-04T16:56:15.044Z,32.92
2022-08-04T16:58:54.167Z,32.79
2022-08-04T17:01:33.419Z,32.79
2022-08-04T17:04:07.061Z,32.62
2022-08-04T17:06:40.706Z,32.62
2022-08-04T17:09:16.992Z,32.52
2022-08-04T17:11:46.058Z,32.36
2022-08-04T17:14:13.588Z,32.04
2022-08-04T17:16:42.949Z,31.97
2022-08-04T17:19:24.481Z,31.75
2022-08-04T17:22:02.964Z,31.69
2022-08-04T17:24:33.347Z,31.68
2022-08-04T17:27:00.579Z,31.64
2022-08-04T17:29:42.812Z,31.45
2022-08-04T17:32:20.929Z,30.86
2022-08-04T17:34:50.407Z,31.20
2022-08-04T17:37:40.086Z,31.05
2022-08-04T17:40:10.013Z,30.97
2022-08-04T17:42:39.895Z,30.87
2022-08-04T17:48:03.573Z,30.66
2022-08-04T17:50:35.744Z,30.75
2022-08-04T17:53:12.577Z,30.46
2022-08-04T17:55:42.115Z,30.31
2022-08-04T17:58:14.033Z,30.17
2022-08-04T18:03:53.148Z,29.94
2022-08-04T18:06:22.791Z,29.45
2022-08-04T18:08:57.364Z,29.72
2022-08-04T18:11:28.716Z,29.55
2022-08-04T18:14:08.954Z,29.46
2022-08-04T18:16:45.346Z,29.40
2022-08-04T18:19:15.459Z,29.08
2022-08-04T18:21:46.971Z,29.08
2022-08-04T18:24:35.811Z,28.85
2022-08-04T18:27:23.787Z,28.92
2022-08-04T18:32:56.392Z,28.86
2022-08-04T18:36:31.331Z,28.77
2022-08-04T18:38:22.588Z,28.82
2022-08-04T18:40:54.339Z,28.84
2022-08-04T18:43:28.599Z,28.74
2022-08-04T18:46:12.481Z,28.70
2022-08-04T18:48:42.258Z,28.73
2022-08-04T18:51:23.497Z,28.65
2022-08-04T18:53:59.082Z,28.76
2022-08-04T18:59:15.365Z,28.70
2022-08-04T19:02:13.303Z,28.62
2022-08-04T19:04:36.775Z,28.61
2022-08-04T19:07:29.652Z,28.64
2022-08-04T19:09:57.247Z,28.57
2022-08-04T19:12:27.373Z,28.54
2022-08-04T19:14:58.705Z,28.42
2022-08-04T19:17:52.525Z,28.40
2022-08-04T19:20:25.613Z,28.30
2022-08-04T19:24:31.545Z,28.26
2022-08-04T19:25:59.304Z,28.15
2022-08-04T19:28:34.168Z,28.11
2022-08-04T19:31:07.139Z,28.27
2022-08-04T19:33:55.947Z,28.22
2022-08-04T19:36:28.020Z,28.27
2022-08-04T19:38:57.922Z,28.18
2022-08-04T19:41:26.520Z,28.14
2022-08-04T19:43:54.873Z,28.17
2022-08-04T19:46:24.993Z,28.08
2022-08-04T19:48:59.916Z,27.97
2022-08-04T19:51:29.902Z,27.94
2022-08-04T19:54:02.875Z,27.74
2022-08-04T19:56:40.909Z,27.78
2022-08-04T19:59:11.381Z,27.33
2022-08-04T20:01:44.638Z,27.61
2022-08-04T20:04:13.845Z,27.54
2022-08-04T20:06:41.333Z,27.62
2022-08-04T20:09:25.098Z,27.43
2022-08-04T20:11:55.702Z,27.52
2022-08-04T20:14:31.521Z,27.36
2022-08-04T20:17:02.089Z,27.58
2022-08-04T20:19:30.559Z,27.23
2022-08-04T20:21:58.219Z,27.51
2022-08-04T20:27:15.996Z,27.26
2022-08-04T20:29:49.453Z,27.28
2022-08-04T20:32:25.507Z,27.27
2022-08-04T20:34:54.615Z,27.28
2022-08-04T20:37:23.755Z,27.05
2022-08-04T20:39:58.625Z,27.15
2022-08-04T20:42:34.125Z,27.06
2022-08-04T20:45:02.259Z,27.01
2022-08-04T20:47:35.403Z,26.61
2022-08-04T20:50:08.811Z,26.74
2022-08-04T20:52:37.658Z,26.63
2022-08-04T20:55:06.196Z,26.61
2022-08-04T20:57:48.436Z,26.49
2022-08-04T21:00:29.789Z,26.57
2022-08-04T21:03:00.350Z,26.37
2022-08-04T21:05:27.909Z,26.33
2022-08-04T21:07:57.055Z,26.42
2022-08-04T21:10:25.675Z,26.35
2022-08-04T21:12:53.852Z,26.32
2022-08-04T21:15:25.564Z,26.26
2022-08-04T21:17:58.042Z,26.27
2022-08-04T21:23:18.087Z,26.11
2022-08-04T21:25:49.995Z,25.99
2022-08-04T21:28:20.362Z,26.04
2022-08-04T21:30:54.052Z,25.92
2022-08-04T21:33:23.782Z,25.78
2022-08-04T21:35:54.172Z,25.83
2022-08-04T21:38:27.969Z,25.79
2022-08-04T21:40:57.812Z,25.52
2022-08-04T21:43:28.506Z,25.70
2022-08-04T21:45:56.945Z,25.63
2022-08-04T21:48:32.074Z,25.69
2022-08-04T21:51:56.919Z,25.55
2022-08-04T21:54:05.879Z,25.62
2022-08-04T21:56:34.128Z,25.63
2022-08-04T21:59:07.158Z,25.57
2022-08-04T22:01:51.093Z,25.50
2022-08-04T22:04:19.969Z,25.26
2022-08-04T22:06:52.526Z,25.46
2022-08-04T22:09:21.991Z,25.53
2022-08-04T22:11:51.587Z,25.51
2022-08-04T22:14:29.683Z,25.47
2022-08-04T22:17:02.140Z,25.38
2022-08-04T22:19:49.857Z,25.40
2022-08-04T22:22:25.288Z,25.35
2022-08-04T22:25:00.411Z,25.36
2022-08-04T22:27:47.539Z,25.06
2022-08-04T22:30:23.518Z,24.96
2022-08-04T22:32:50.890Z,25.33
2022-08-04T22:35:36.267Z,25.19
2022-08-04T22:38:24.182Z,25.16
2022-08-04T22:41:02.172Z,25.05
2022-08-04T22:43:31.780Z,25.02
2022-08-04T22:46:03.911Z,24.99
2022-08-04T22:48:32.899Z,24.93
2022-08-04T22:51:00.962Z,24.93
2022-08-04T22:53:30.214Z,24.92
2022-08-04T22:56:10.290Z,24.91
2022-08-04T22:58:44.798Z,24.92
2022-08-04T23:01:14.998Z,24.96
2022-08-04T23:03:51.219Z,24.73
2022-08-04T23:06:28.363Z,24.82
2022-08-04T23:08:57.475Z,24.44
2022-08-04T23:11:24.545Z,24.64
2022-08-04T23:14:02.854Z,24.79
2022-08-04T23:16:29.999Z,24.62
2022-08-04T23:18:57.049Z,24.55
2022-08-04T23:21:24.940Z,24.64
2022-08-04T23:24:01.016Z,24.55
2022-08-04T23:26:31.547Z,24.40
2022-08-04T23:28:58.716Z,24.53
2022-08-04T23:31:40.399Z,24.48
2022-08-04T23:34:09.151Z,24.49
2022-08-04T23:36:39.555Z,24.48
2022-08-04T23:39:07.300Z,24.48
2022-08-04T23:41:53.633Z,24.44
2022-08-04T23:44:25.670Z,24.29
2022-08-04T23:47:00.289Z,24.46
2022-08-04T23:49:44.271Z,24.37
2022-08-04T23:52:28.368Z,24.22
2022-08-04T23:54:58.825Z,24.41
2022-08-04T23:57:30.883Z,24.30
